Terminal Aerodrome Forecast
Issued by NWS Shreveport, LA

Home | Current Version | Previous Version | Text Only | Print | Product List | Glossary On
Versions: 1 2 3 4 5 6 7 8 9 10 11 12 13 14
000
FTUS44 KSHV 292100 AAA
TAFGGG
TAF AMD
KGGG 292135Z 2922/3018 18008KT P6SM VCTS FEW030CB FEW070
     FM300000 16005KT P6SM SCT045 BKN150 BKN250
     FM300600 16004KT P6SM SCT150 BKN250
     FM301000 16004KT P6SM SCT020 SCT150 BKN250
     FM301300 17004KT P6SM BKN013
     FM301600 18005KT P6SM BKN020=

USA.gov is the U.S. government's official web portal to all federal, state and local government web resources and services.